Time;durP1;ratioP1;P1;durP2;ratioP2;P2;SDS_P1;SDS_P2;PMS_P1;PMS_P2;Temp;Humidity;BMP_temperature;BMP_pressure;BME280_temperature;BME280_humidity;BME280_pressure;Samples;Min_cycle;Max_cycle;Signal;HPM_P1;HPM_P2
2021/11/02 00:01:27;;;;;;;7.95;2.17;;;;;;;;;;4997714;28;20183;-79
2021/11/02 00:03:54;;;;;;;4.70;2.50;;;;;;;;;;4997951;28;20168;-80
2021/11/02 00:06:20;;;;;;;6.05;2.25;;;;;;;;;;4998329;28;20184;-77
2021/11/02 00:08:47;;;;;;;6.47;2.25;;;;;;;;;;4980358;28;20190;-79
2021/11/02 00:11:13;;;;;;;7.20;2.10;;;;;;;;;;4997382;28;20278;-79
2021/11/02 00:13:45;;;;;;;3.78;2.08;;;;;;;;;;4997444;28;20192;-79
2021/11/02 00:16:13;;;;;;;2.05;1.70;;;;;;;;;;4997457;28;20155;-78
2021/11/02 00:18:44;;;;;;;7.47;2.00;;;;;;;;;;4997239;28;20267;-79
2021/11/02 00:21:10;;;;;;;7.38;2.55;;;;;;;;;;4997617;28;20214;-77
2021/11/02 00:23:37;;;;;;;5.47;2.15;;;;;;;;;;4996790;28;20249;-79
2021/11/02 00:26:08;;;;;;;8.38;1.88;;;;;;;;;;4998583;28;20171;-78
2021/11/02 00:28:34;;;;;;;4.07;1.70;;;;;;;;;;4997965;28;20176;-78
2021/11/02 00:31:00;;;;;;;5.63;1.60;;;;;;;;;;4997599;28;20213;-77
2021/11/02 00:33:26;;;;;;;2.95;1.60;;;;;;;;;;4996070;28;20223;-79
2021/11/02 00:35:53;;;;;;;2.60;1.50;;;;;;;;;;4979794;28;20190;-79
2021/11/02 00:38:19;;;;;;;2.95;1.67;;;;;;;;;;4996964;28;20187;-78
2021/11/02 00:40:46;;;;;;;2.58;1.60;;;;;;;;;;4995716;28;20499;-79
2021/11/02 00:43:12;;;;;;;2.20;1.90;;;;;;;;;;4996603;28;20619;-78
2021/11/02 00:45:39;;;;;;;3.97;1.95;;;;;;;;;;4996399;28;20194;-77
2021/11/02 00:48:08;;;;;;;4.30;1.88;;;;;;;;;;4996379;28;20170;-79
2021/11/02 00:50:36;;;;;;;3.05;1.40;;;;;;;;;;4996496;28;20178;-77
2021/11/02 00:53:03;;;;;;;3.78;1.73;;;;;;;;;;4995806;28;20206;-80
2021/11/02 00:55:29;;;;;;;3.20;1.40;;;;;;;;;;4996134;28;20190;-78
2021/11/02 00:57:55;;;;;;;4.93;1.80;;;;;;;;;;4995851;28;20262;-77
2021/11/02 01:00:24;;;;;;;8.38;1.63;;;;;;;;;;4995926;28;20249;-77
2021/11/02 01:02:50;;;;;;;3.60;1.50;;;;;;;;;;4995286;28;20204;-79
2021/11/02 01:05:16;;;;;;;3.70;1.60;;;;;;;;;;4994246;28;20199;-78
2021/11/02 01:07:42;;;;;;;2.10;1.40;;;;;;;;;;4995946;28;20184;-77
2021/11/02 01:10:13;;;;;;;7.63;1.50;;;;;;;;;;4994037;28;20524;-78
2021/11/02 01:12:40;;;;;;;2.63;1.42;;;;;;;;;;4993558;28;20210;-79
2021/11/02 01:15:06;;;;;;;4.72;1.65;;;;;;;;;;4995059;28;20238;-77
2021/11/02 01:17:32;;;;;;;3.20;2.10;;;;;;;;;;4995030;28;20190;-79
2021/11/02 01:19:58;;;;;;;4.53;1.50;;;;;;;;;;4994805;28;20195;-80
2021/11/02 01:22:24;;;;;;;1.67;1.33;;;;;;;;;;4994550;28;20695;-79
2021/11/02 01:24:53;;;;;;;2.43;1.73;;;;;;;;;;4994576;28;20416;-78
2021/11/02 01:27:19;;;;;;;1.45;1.00;;;;;;;;;;4993235;28;20931;-80
2021/11/02 01:29:45;;;;;;;2.50;1.20;;;;;;;;;;4994098;28;20183;-78
2021/11/02 01:32:11;;;;;;;2.53;1.10;;;;;;;;;;4993467;28;20450;-79
2021/11/02 01:34:37;;;;;;;6.73;1.43;;;;;;;;;;4993765;28;20273;-78
2021/11/02 01:37:04;;;;;;;6.47;1.23;;;;;;;;;;4993780;28;20503;-80
2021/11/02 01:39:30;;;;;;;1.98;1.00;;;;;;;;;;4993668;28;20193;-79
2021/11/02 01:41:56;;;;;;;4.63;1.23;;;;;;;;;;4993448;28;20534;-78
2021/11/02 01:44:22;;;;;;;1.80;1.20;;;;;;;;;;4992452;28;20190;-79
2021/11/02 01:46:48;;;;;;;3.45;1.05;;;;;;;;;;4993700;28;20404;-80
2021/11/02 01:49:17;;;;;;;2.55;1.40;;;;;;;;;;4993624;28;20188;-80
2021/11/02 01:51:43;;;;;;;3.92;1.73;;;;;;;;;;4993553;28;20227;-79
2021/11/02 01:54:09;;;;;;;4.10;1.23;;;;;;;;;;4992346;28;20191;-80
2021/11/02 01:56:36;;;;;;;3.22;1.20;;;;;;;;;;4992345;28;20183;-78
2021/11/02 01:59:03;;;;;;;2.15;1.20;;;;;;;;;;4993295;28;20203;-78
2021/11/02 02:01:49;;;;;;;2.55;1.13;;;;;;;;;;4993410;28;20269;-79
2021/11/02 02:04:21;;;;;;;1.65;1.00;;;;;;;;;;4993568;28;20176;-80
2021/11/02 02:06:56;;;;;;;2.13;1.00;;;;;;;;;;4993452;28;20176;-79
2021/11/02 02:09:40;;;;;;;3.63;1.80;;;;;;;;;;4993702;28;20644;-77
2021/11/02 02:12:06;;;;;;;2.78;1.10;;;;;;;;;;4991803;28;20641;-77
2021/11/02 02:14:48;;;;;;;2.10;1.30;;;;;;;;;;4994040;28;20175;-79
2021/11/02 02:17:19;;;;;;;1.42;1.17;;;;;;;;;;4997352;28;20183;-79
2021/11/02 02:19:50;;;;;;;2.95;1.33;;;;;;;;;;4997259;28;20195;-79
2021/11/02 02:22:35;;;;;;;4.47;1.35;;;;;;;;;;4996757;28;20278;-79
2021/11/02 02:25:20;;;;;;;1.33;1.20;;;;;;;;;;4997029;28;20178;-78
2021/11/02 02:28:03;;;;;;;3.50;1.40;;;;;;;;;;4995823;28;20192;-81
2021/11/02 02:30:30;;;;;;;2.13;1.17;;;;;;;;;;4996904;28;20180;-79
2021/11/02 02:32:57;;;;;;;2.45;1.35;;;;;;;;;;4996791;28;20230;-79
2021/11/02 02:35:23;;;;;;;1.58;1.15;;;;;;;;;;4997639;28;20190;-80
2021/11/02 02:37:49;;;;;;;4.72;1.50;;;;;;;;;;4995806;28;20282;-78
2021/11/02 02:40:17;;;;;;;3.35;1.30;;;;;;;;;;4996958;28;20250;-80
2021/11/02 02:42:44;;;;;;;1.90;1.40;;;;;;;;;;4996508;28;20192;-78
2021/11/02 02:45:13;;;;;;;2.88;2.28;;;;;;;;;;4996773;28;20172;-81
2021/11/02 02:47:39;;;;;;;2.03;1.40;;;;;;;;;;4996738;28;20539;-79
2021/11/02 02:50:07;;;;;;;1.50;1.40;;;;;;;;;;4996603;28;20191;-80
2021/11/02 02:52:33;;;;;;;2.40;1.45;;;;;;;;;;4996392;28;20269;-81
2021/11/02 02:55:00;;;;;;;1.50;1.10;;;;;;;;;;4996404;28;20609;-78
2021/11/02 02:57:27;;;;;;;1.38;1.27;;;;;;;;;;4996428;28;20184;-79
2021/11/02 02:59:53;;;;;;;2.15;1.80;;;;;;;;;;4996406;28;20229;-79
2021/11/02 03:02:20;;;;;;;1.48;1.15;;;;;;;;;;4996034;28;20199;-81
2021/11/02 03:04:53;;;;;;;2.30;1.20;;;;;;;;;;4996547;28;20186;-78
2021/11/02 03:07:19;;;;;;;3.55;1.30;;;;;;;;;;4996336;28;20176;-78
2021/11/02 03:09:46;;;;;;;1.42;1.10;;;;;;;;;;4996336;28;20180;-80
2021/11/02 03:12:12;;;;;;;2.50;1.10;;;;;;;;;;4995935;28;20194;-80
2021/11/02 03:15:10;;;;;;;2.58;1.10;;;;;;;;;;4996176;28;20184;-79
2021/11/02 03:17:43;;;;;;;4.40;1.80;;;;;;;;;;4996136;28;20171;-80
2021/11/02 03:43:25;;;;;;;2.00;1.52;;;;;;;;;;4996016;28;20201;-80
2021/11/02 03:58:48;;;;;;;2.30;1.42;;;;;;;;;;4995384;28;20268;-81
2021/11/02 04:23:31;;;;;;;2.00;1.80;;;;;;;;;;4994819;28;20286;-80
2021/11/02 04:28:46;;;;;;;1.85;1.45;;;;;;;;;;4995378;28;20677;-80
2021/11/02 04:31:40;;;;;;;3.60;1.48;;;;;;;;;;4993467;28;20680;-79
2021/11/02 05:06:38;;;;;;;2.65;1.52;;;;;;;;;;4994513;28;20299;-79
2021/11/02 06:00:26;;;;;;;3.58;1.75;;;;;;;;;;4997363;28;20203;-81
2021/11/02 06:03:14;;;;;;;3.85;1.80;;;;;;;;;;4995936;28;20575;-80
2021/11/02 06:05:49;;;;;;;3.47;1.92;;;;;;;;;;4996679;28;20172;-81
2021/11/02 06:30:35;;;;;;;4.20;3.40;;;;;;;;;;4997442;28;20183;-81
2021/11/02 06:49:38;;;;;;;8.80;4.82;;;;;;;;;;4997008;28;20229;-80
2021/11/02 07:00:28;;;;;;;5.75;4.13;;;;;;;;;;4997328;28;20255;-80
2021/11/02 07:19:46;;;;;;;3.42;2.50;;;;;;;;;;4999924;28;20213;-80
2021/11/02 07:27:27;;;;;;;4.40;2.22;;;;;;;;;;5000738;28;20164;-81
2021/11/02 08:48:03;;;;;;;4.30;1.50;;;;;;;;;;4996142;28;20172;-81
2021/11/02 08:50:36;;;;;;;4.30;1.30;;;;;;;;;;4997512;28;20151;-79
2021/11/02 08:53:04;;;;;;;3.67;1.38;;;;;;;;;;4997669;28;20231;-80
2021/11/02 08:55:30;;;;;;;3.53;1.70;;;;;;;;;;4996182;28;20182;-80
2021/11/02 08:57:57;;;;;;;3.70;1.55;;;;;;;;;;4995548;28;20195;-81
2021/11/02 09:00:23;;;;;;;3.13;1.70;;;;;;;;;;4993403;28;20207;-83
2021/11/02 09:02:53;;;;;;;3.42;1.70;;;;;;;;;;4992743;28;20188;-83
2021/11/02 09:05:23;;;;;;;4.05;1.55;;;;;;;;;;4994211;28;20175;-83
2021/11/02 09:07:50;;;;;;;4.75;1.80;;;;;;;;;;4994246;28;20203;-82
2021/11/02 09:10:23;;;;;;;3.63;2.00;;;;;;;;;;4994163;28;20180;-83
2021/11/02 09:12:50;;;;;;;4.72;3.17;;;;;;;;;;4993704;28;20686;-79
2021/11/02 09:15:16;;;;;;;3.83;1.83;;;;;;;;;;4994207;28;20580;-82
2021/11/02 09:17:43;;;;;;;1.70;1.60;;;;;;;;;;4994390;28;20262;-82
2021/11/02 09:20:10;;;;;;;2.97;2.00;;;;;;;;;;4993896;28;20195;-82
2021/11/02 09:22:36;;;;;;;2.10;1.90;;;;;;;;;;4992744;28;20202;-83
2021/11/02 09:25:02;;;;;;;3.60;2.05;;;;;;;;;;4993339;28;20182;-83
2021/11/02 09:27:28;;;;;;;7.05;2.53;;;;;;;;;;4994245;28;20188;-82
2021/11/02 09:29:55;;;;;;;2.85;1.95;;;;;;;;;;4994078;28;20197;-83
2021/11/02 09:32:22;;;;;;;3.03;2.08;;;;;;;;;;4993366;28;20618;-83
2021/11/02 09:34:48;;;;;;;3.15;2.03;;;;;;;;;;4993961;28;20199;-82
2021/11/02 09:37:18;;;;;;;2.80;2.20;;;;;;;;;;4993743;28;20176;-81
2021/11/02 09:39:53;;;;;;;5.93;2.30;;;;;;;;;;4994097;28;20458;-82
2021/11/02 09:42:38;;;;;;;2.30;2.10;;;;;;;;;;4992280;28;20241;-83
2021/11/02 09:45:16;;;;;;;4.13;2.50;;;;;;;;;;4994001;28;20181;-82
2021/11/02 09:47:45;;;;;;;4.43;2.10;;;;;;;;;;4993747;28;20175;-82
2021/11/02 09:50:20;;;;;;;6.75;2.45;;;;;;;;;;4993764;28;20502;-81
2021/11/02 09:53:08;;;;;;;3.08;2.28;;;;;;;;;;4993483;28;20775;-82
2021/11/02 09:55:35;;;;;;;4.65;2.90;;;;;;;;;;4993847;28;20640;-81
2021/11/02 09:58:01;;;;;;;2.75;2.42;;;;;;;;;;4992479;28;20180;-82
2021/11/02 10:00:33;;;;;;;7.70;2.93;;;;;;;;;;4993442;28;20222;-81
2021/11/02 10:03:09;;;;;;;3.03;2.70;;;;;;;;;;4991731;28;20855;-82
2021/11/02 10:05:41;;;;;;;5.53;2.80;;;;;;;;;;4992623;28;20290;-82
2021/11/02 10:08:21;;;;;;;2.85;2.13;;;;;;;;;;4993613;28;20168;-82
2021/11/02 10:11:00;;;;;;;5.72;2.97;;;;;;;;;;4992277;28;20198;-81
2021/11/02 10:13:33;;;;;;;9.35;3.25;;;;;;;;;;4993514;28;20210;-82
2021/11/02 10:16:01;;;;;;;12.80;3.35;;;;;;;;;;4993556;28;20567;-82
2021/11/02 10:18:48;;;;;;;3.75;2.90;;;;;;;;;;4993468;28;20168;-82
2021/11/02 10:21:40;;;;;;;6.45;3.13;;;;;;;;;;4993114;28;20222;-83
2021/11/02 10:24:19;;;;;;;6.15;2.80;;;;;;;;;;4978558;28;20190;-82
2021/11/02 10:27:15;;;;;;;3.50;3.17;;;;;;;;;;4993591;28;20535;-82
2021/11/02 10:30:05;;;;;;;6.05;3.45;;;;;;;;;;4992437;28;20303;-82
2021/11/02 10:32:32;;;;;;;6.78;3.10;;;;;;;;;;4974300;28;20242;-82
2021/11/02 10:35:05;;;;;;;4.65;3.38;;;;;;;;;;4993531;28;20187;-82
2021/11/02 10:37:32;;;;;;;6.68;4.55;;;;;;;;;;4996992;28;20179;-81
2021/11/02 10:40:10;;;;;;;5.82;3.30;;;;;;;;;;4995756;28;20599;-81
2021/11/02 10:42:37;;;;;;;6.00;4.20;;;;;;;;;;4996479;28;20191;-81
2021/11/02 10:45:07;;;;;;;5.40;3.63;;;;;;;;;;4996890;28;20186;-81
2021/11/02 10:47:51;;;;;;;3.40;3.10;;;;;;;;;;4996873;28;20176;-81
2021/11/02 10:50:17;;;;;;;5.50;3.90;;;;;;;;;;4995552;28;20183;-82
2021/11/02 10:52:47;;;;;;;4.45;3.80;;;;;;;;;;4996374;28;20210;-81
2021/11/02 10:55:20;;;;;;;3.35;2.97;;;;;;;;;;4996814;28;20178;-81
2021/11/02 10:58:05;;;;;;;6.28;4.03;;;;;;;;;;4996910;28;20541;-81
2021/11/02 11:00:32;;;;;;;4.45;2.97;;;;;;;;;;4996689;28;20207;-81
2021/11/02 11:02:59;;;;;;;3.17;2.80;;;;;;;;;;4996069;28;20191;-81
2021/11/02 11:05:27;;;;;;;3.13;2.65;;;;;;;;;;4996557;28;20175;-80
2021/11/02 11:07:54;;;;;;;3.30;3.00;;;;;;;;;;4996495;28;20227;-80
2021/11/02 11:10:22;;;;;;;4.57;2.47;;;;;;;;;;4996449;28;20178;-80
2021/11/02 11:12:51;;;;;;;4.82;3.58;;;;;;;;;;4995920;28;20239;-80
2021/11/02 11:15:17;;;;;;;4.78;3.05;;;;;;;;;;4996488;28;20587;-81
2021/11/02 11:17:49;;;;;;;4.13;3.13;;;;;;;;;;4996630;28;20187;-80
2021/11/02 11:20:16;;;;;;;2.40;2.17;;;;;;;;;;4996678;28;20469;-81
2021/11/02 11:22:43;;;;;;;3.10;2.00;;;;;;;;;;4996677;28;20431;-81
2021/11/02 11:25:09;;;;;;;3.10;1.90;;;;;;;;;;4997171;28;20428;-81
2021/11/02 11:27:37;;;;;;;3.20;1.70;;;;;;;;;;4997133;28;20407;-80
2021/11/02 11:30:07;;;;;;;4.90;2.00;;;;;;;;;;4997790;28;20377;-80
2021/11/02 11:32:37;;;;;;;4.83;2.13;;;;;;;;;;4997149;28;20542;-80
2021/11/02 11:35:04;;;;;;;3.37;2.30;;;;;;;;;;4995776;28;20465;-80
2021/11/02 11:37:35;;;;;;;3.10;2.47;;;;;;;;;;4996396;28;20415;-80
2021/11/02 11:40:05;;;;;;;2.70;2.20;;;;;;;;;;4995052;28;20462;-81
2021/11/02 11:42:31;;;;;;;9.23;3.27;;;;;;;;;;4995802;28;20422;-80
2021/11/02 11:45:03;;;;;;;5.47;3.63;;;;;;;;;;4978762;28;20413;-80
2021/11/02 11:47:29;;;;;;;9.77;3.57;;;;;;;;;;4995701;28;20418;-80
2021/11/02 11:49:55;;;;;;;10.40;4.50;;;;;;;;;;4995878;28;20509;-81
2021/11/02 11:52:23;;;;;;;7.35;4.25;;;;;;;;;;4995347;28;20514;-80
2021/11/02 11:54:58;;;;;;;9.60;3.80;;;;;;;;;;4994450;28;20206;-81
2021/11/02 11:57:28;;;;;;;3.67;2.88;;;;;;;;;;4995486;28;20779;-82
2021/11/02 12:00:00;;;;;;;16.15;6.63;;;;;;;;;;4994165;28;20207;-82
2021/11/02 12:02:30;;;;;;;9.18;4.35;;;;;;;;;;4995160;28;20203;-82
2021/11/02 12:04:59;;;;;;;6.38;3.45;;;;;;;;;;4995430;28;20580;-82
2021/11/02 12:07:31;;;;;;;4.20;2.20;;;;;;;;;;4995400;28;20175;-81
2021/11/02 12:10:02;;;;;;;14.60;6.03;;;;;;;;;;4995409;28;20186;-81
2021/11/02 12:12:28;;;;;;;9.63;4.15;;;;;;;;;;4994933;28;20207;-81
2021/11/02 12:14:54;;;;;;;2.92;2.33;;;;;;;;;;4995271;28;20186;-81
2021/11/02 12:17:21;;;;;;;4.03;2.10;;;;;;;;;;4995243;28;20250;-81
2021/11/02 12:19:56;;;;;;;7.68;3.88;;;;;;;;;;4993916;28;20258;-81
2021/11/02 12:22:26;;;;;;;10.60;4.95;;;;;;;;;;4995120;28;20191;-80
2021/11/02 12:25:02;;;;;;;5.32;2.78;;;;;;;;;;4994919;28;20192;-80
2021/11/02 12:27:36;;;;;;;6.53;3.67;;;;;;;;;;4994971;28;20175;-80
2021/11/02 12:30:06;;;;;;;5.80;1.90;;;;;;;;;;4995008;28;20172;-80
2021/11/02 12:32:33;;;;;;;6.43;3.40;;;;;;;;;;4993341;28;20365;-80
2021/11/02 12:35:06;;;;;;;2.60;1.90;;;;;;;;;;4993775;28;20180;-80
2021/11/02 12:37:34;;;;;;;9.02;4.90;;;;;;;;;;4994755;28;20637;-80
2021/11/02 12:40:17;;;;;;;2.85;1.50;;;;;;;;;;4994882;28;20203;-80
2021/11/02 12:42:44;;;;;;;5.97;2.80;;;;;;;;;;4994432;28;20222;-80
2021/11/02 12:45:11;;;;;;;4.80;3.07;;;;;;;;;;4994705;28;20402;-79
2021/11/02 12:47:38;;;;;;;3.80;2.37;;;;;;;;;;4994405;28;20926;-79
2021/11/02 12:50:05;;;;;;;3.90;2.93;;;;;;;;;;4994475;28;20493;-80
2021/11/02 12:52:36;;;;;;;3.20;2.03;;;;;;;;;;4994138;28;20443;-79
2021/11/02 12:55:05;;;;;;;2.73;1.77;;;;;;;;;;4994510;28;20415;-81
2021/11/02 12:57:33;;;;;;;7.77;3.13;;;;;;;;;;4993109;28;20418;-81
2021/11/02 12:59:59;;;;;;;4.33;2.47;;;;;;;;;;4993305;28;20946;-80
2021/11/02 13:02:36;;;;;;;6.20;2.97;;;;;;;;;;4992694;28;20447;-79
2021/11/02 13:05:17;;;;;;;1.73;1.30;;;;;;;;;;4994265;28;20406;-79
2021/11/02 13:07:44;;;;;;;3.23;1.10;;;;;;;;;;4992902;28;20422;-79
2021/11/02 13:10:15;;;;;;;1.95;1.38;;;;;;;;;;4993226;28;20923;-79
2021/11/02 13:12:44;;;;;;;2.43;1.20;;;;;;;;;;4993845;28;20600;-81
2021/11/02 13:15:13;;;;;;;3.80;1.33;;;;;;;;;;4992929;28;20442;-81
2021/11/02 13:17:42;;;;;;;1.35;1.10;;;;;;;;;;4994086;28;20414;-80
2021/11/02 13:20:09;;;;;;;2.97;1.38;;;;;;;;;;4992585;28;20643;-81
2021/11/02 13:22:35;;;;;;;1.45;1.20;;;;;;;;;;4993684;28;20557;-81
2021/11/02 13:25:08;;;;;;;2.95;1.65;;;;;;;;;;4994007;28;20554;-81
2021/11/02 13:27:36;;;;;;;3.97;1.60;;;;;;;;;;4994073;28;20178;-81
2021/11/02 13:30:21;;;;;;;4.88;1.80;;;;;;;;;;4994026;28;20203;-81
2021/11/02 13:32:58;;;;;;;5.18;1.92;;;;;;;;;;4993554;28;20219;-80
2021/11/02 13:35:39;;;;;;;1.88;1.30;;;;;;;;;;4994149;28;20584;-81
2021/11/02 13:38:20;;;;;;;2.58;0.95;;;;;;;;;;4993936;28;20184;-80
2021/11/02 13:40:46;;;;;;;1.25;0.88;;;;;;;;;;4994811;28;20671;-79
2021/11/02 13:43:12;;;;;;;1.30;1.20;;;;;;;;;;4994634;28;20248;-79
2021/11/02 13:45:38;;;;;;;1.10;1.00;;;;;;;;;;4994275;28;20180;-80
2021/11/02 13:48:05;;;;;;;1.42;1.33;;;;;;;;;;4993830;28;20189;-80
2021/11/02 13:50:31;;;;;;;2.78;1.23;;;;;;;;;;4994943;28;20637;-80
2021/11/02 13:52:57;;;;;;;1.92;1.40;;;;;;;;;;4995556;28;20199;-80
2021/11/02 13:55:23;;;;;;;6.07;2.58;;;;;;;;;;4994052;28;20585;-80
2021/11/02 13:57:49;;;;;;;2.40;1.20;;;;;;;;;;4994500;28;20523;-80
2021/11/02 14:00:15;;;;;;;6.23;2.13;;;;;;;;;;4994704;28;20215;-80
2021/11/02 14:02:42;;;;;;;2.80;1.50;;;;;;;;;;4994899;28;20435;-79
2021/11/02 14:05:10;;;;;;;4.90;2.00;;;;;;;;;;4995457;28;20179;-79
2021/11/02 14:07:37;;;;;;;5.00;2.40;;;;;;;;;;4994727;28;20262;-79
2021/11/02 14:10:05;;;;;;;3.15;1.42;;;;;;;;;;4993544;28;20600;-79
2021/11/02 14:12:32;;;;;;;2.05;1.17;;;;;;;;;;4996783;28;20207;-79
2021/11/02 14:15:10;;;;;;;1.73;1.20;;;;;;;;;;4997479;28;20182;-77
2021/11/02 14:17:40;;;;;;;3.88;2.20;;;;;;;;;;4997591;28;20183;-79
2021/11/02 14:20:06;;;;;;;6.38;2.95;;;;;;;;;;4997218;28;20203;-78
2021/11/02 14:22:50;;;;;;;2.38;1.40;;;;;;;;;;4996986;28;20621;-79
2021/11/02 14:25:17;;;;;;;0.90;0.70;;;;;;;;;;4997608;28;20171;-79
2021/11/02 14:27:44;;;;;;;6.03;2.53;;;;;;;;;;4997951;28;20167;-78
2021/11/02 14:30:21;;;;;;;2.58;1.30;;;;;;;;;;4997770;28;20541;-79
2021/11/02 14:32:51;;;;;;;2.90;1.13;;;;;;;;;;4997140;28;20211;-79
2021/11/02 14:35:35;;;;;;;6.85;2.80;;;;;;;;;;4997518;28;20176;-79
2021/11/02 14:38:28;;;;;;;1.73;1.30;;;;;;;;;;4997679;28;20517;-80
2021/11/02 14:40:55;;;;;;;1.98;0.75;;;;;;;;;;4995776;28;20235;-80
2021/11/02 14:43:23;;;;;;;5.68;1.98;;;;;;;;;;4996859;28;20203;-79
2021/11/02 14:45:53;;;;;;;4.63;1.83;;;;;;;;;;4997899;28;20182;-79
2021/11/02 14:48:32;;;;;;;5.32;1.00;;;;;;;;;;4997807;28;20251;-79
2021/11/02 14:51:21;;;;;;;0.95;0.70;;;;;;;;;;4996579;28;20179;-80
2021/11/02 14:53:48;;;;;;;1.80;0.70;;;;;;;;;;4996911;28;20863;-80
2021/11/02 14:56:27;;;;;;;2.08;1.02;;;;;;;;;;4996833;28;20258;-81
2021/11/02 14:58:53;;;;;;;4.70;0.90;;;;;;;;;;4995356;28;20171;-80
2021/11/02 15:01:25;;;;;;;2.00;1.00;;;;;;;;;;4996130;28;20286;-80
2021/11/02 15:03:54;;;;;;;1.98;1.00;;;;;;;;;;4996660;28;20398;-81
2021/11/02 15:06:21;;;;;;;2.15;0.70;;;;;;;;;;4996607;28;20176;-80
2021/11/02 15:08:47;;;;;;;0.70;0.63;;;;;;;;;;4995176;28;21080;-80
2021/11/02 15:11:15;;;;;;;1.92;1.17;;;;;;;;;;4996264;28;20171;-80
2021/11/02 15:14:07;;;;;;;1.10;0.93;;;;;;;;;;4996442;28;20548;-80
2021/11/02 15:16:40;;;;;;;1.98;1.20;;;;;;;;;;4994522;28;20288;-80
2021/11/02 15:19:07;;;;;;;0.70;0.70;;;;;;;;;;4996278;28;20214;-80
2021/11/02 15:21:34;;;;;;;1.25;1.00;;;;;;;;;;4996169;28;20204;-79
2021/11/02 15:24:07;;;;;;;1.50;0.90;;;;;;;;;;4996643;28;20252;-79
2021/11/02 15:26:47;;;;;;;2.17;1.98;;;;;;;;;;4997599;28;20156;-80
2021/11/02 15:29:13;;;;;;;2.00;1.08;;;;;;;;;;4996996;28;20251;-79
2021/11/02 15:31:39;;;;;;;4.20;1.30;;;;;;;;;;4994656;28;20626;-80
2021/11/02 15:34:12;;;;;;;1.10;1.00;;;;;;;;;;4996142;28;20176;-79
2021/11/02 15:36:38;;;;;;;1.05;0.90;;;;;;;;;;4996172;28;20182;-79
2021/11/02 15:39:06;;;;;;;1.70;1.00;;;;;;;;;;4996043;28;20266;-79
2021/11/02 15:41:33;;;;;;;1.10;1.00;;;;;;;;;;4996336;28;20588;-78
2021/11/02 15:44:01;;;;;;;1.95;1.30;;;;;;;;;;4996282;28;20183;-79
2021/11/02 15:46:41;;;;;;;2.50;1.25;;;;;;;;;;4996646;28;20172;-78
2021/11/02 15:49:11;;;;;;;4.30;1.15;;;;;;;;;;4995223;28;20595;-78
2021/11/02 15:51:38;;;;;;;3.15;1.55;;;;;;;;;;4996669;28;20209;-79
2021/11/02 15:54:11;;;;;;;4.60;1.33;;;;;;;;;;4998147;28;20226;-78
2021/11/02 15:56:38;;;;;;;2.88;0.88;;;;;;;;;;4998380;28;20234;-78
2021/11/02 15:59:05;;;;;;;2.15;1.00;;;;;;;;;;4996276;28;20553;-79
2021/11/02 16:01:39;;;;;;;1.80;1.30;;;;;;;;;;4997180;28;20297;-79
2021/11/02 16:04:07;;;;;;;2.97;1.30;;;;;;;;;;4997741;28;20580;-79
2021/11/02 16:06:33;;;;;;;2.35;1.90;;;;;;;;;;4996149;28;20186;-79
2021/11/02 16:09:06;;;;;;;2.80;2.60;;;;;;;;;;4997440;28;20188;-77
2021/11/02 16:11:32;;;;;;;4.20;2.30;;;;;;;;;;4995839;28;20498;-78
2021/11/02 16:14:05;;;;;;;5.80;3.80;;;;;;;;;;4997657;28;20521;-79
2021/11/02 16:16:31;;;;;;;2.20;2.00;;;;;;;;;;4998439;28;20226;-78
2021/11/02 16:18:57;;;;;;;3.90;2.97;;;;;;;;;;4998316;28;20190;-78
2021/11/02 16:21:24;;;;;;;4.35;3.35;;;;;;;;;;4995976;28;20286;-77
2021/11/02 16:23:51;;;;;;;3.47;2.80;;;;;;;;;;4997728;28;20174;-78
2021/11/02 16:26:22;;;;;;;7.40;3.30;;;;;;;;;;4997694;28;20766;-78
2021/11/02 16:28:48;;;;;;;3.20;2.90;;;;;;;;;;4997439;28;20207;-77
2021/11/02 16:31:22;;;;;;;4.38;3.20;;;;;;;;;;4997368;28;20573;-78
2021/11/02 16:33:48;;;;;;;4.78;2.90;;;;;;;;;;4996689;28;20184;-80
2021/11/02 16:36:15;;;;;;;3.15;2.55;;;;;;;;;;4997125;28;20203;-78
2021/11/02 16:38:41;;;;;;;3.95;2.55;;;;;;;;;;4997629;28;20179;-79
2021/11/02 16:41:22;;;;;;;3.10;2.70;;;;;;;;;;4995935;28;20225;-78
2021/11/02 16:43:53;;;;;;;4.03;2.80;;;;;;;;;;4997033;28;20180;-78
2021/11/02 16:46:23;;;;;;;5.50;4.00;;;;;;;;;;4997422;28;20178;-78
2021/11/02 16:48:56;;;;;;;4.03;3.10;;;;;;;;;;4998109;28;20670;-79
2021/11/02 16:51:22;;;;;;;3.85;2.42;;;;;;;;;;4997487;28;20171;-79
2021/11/02 16:53:48;;;;;;;4.83;3.30;;;;;;;;;;4997194;28;20210;-81
2021/11/02 16:56:23;;;;;;;4.00;3.40;;;;;;;;;;4996018;28;20419;-79
2021/11/02 16:58:50;;;;;;;3.83;3.42;;;;;;;;;;4997346;28;20413;-80
2021/11/02 17:01:17;;;;;;;4.53;3.53;;;;;;;;;;4996557;28;20559;-79
2021/11/02 17:03:44;;;;;;;4.07;3.67;;;;;;;;;;4996807;28;20544;-80
2021/11/02 17:06:11;;;;;;;4.45;3.72;;;;;;;;;;4996522;28;20178;-78
2021/11/02 17:08:37;;;;;;;8.63;4.75;;;;;;;;;;4997062;28;20222;-78
2021/11/02 17:11:03;;;;;;;4.13;3.83;;;;;;;;;;4996648;28;20651;-79
2021/11/02 17:13:37;;;;;;;4.10;3.70;;;;;;;;;;4996335;28;20439;-79
2021/11/02 17:16:14;;;;;;;3.05;2.35;;;;;;;;;;4994621;28;20414;-78
2021/11/02 17:18:56;;;;;;;3.70;3.40;;;;;;;;;;4996862;28;20262;-78
2021/11/02 17:21:24;;;;;;;3.45;3.15;;;;;;;;;;4994531;28;20195;-78
2021/11/02 17:23:50;;;;;;;4.32;3.92;;;;;;;;;;4994995;28;20178;-79
2021/11/02 17:26:17;;;;;;;3.65;3.35;;;;;;;;;;4994783;28;20262;-79
2021/11/02 17:28:45;;;;;;;6.63;4.85;;;;;;;;;;4995235;28;20579;-78
2021/11/02 17:31:12;;;;;;;5.57;4.80;;;;;;;;;;4994900;28;20187;-78
2021/11/02 17:33:38;;;;;;;5.10;4.20;;;;;;;;;;4995037;28;20210;-78
2021/11/02 17:36:06;;;;;;;6.13;4.03;;;;;;;;;;4994804;28;20183;-78
2021/11/02 17:38:32;;;;;;;4.00;3.20;;;;;;;;;;4995590;28;20193;-78
2021/11/02 17:41:02;;;;;;;11.13;7.20;;;;;;;;;;4995119;28;20205;-78
2021/11/02 17:43:28;;;;;;;7.75;6.97;;;;;;;;;;4995683;28;20196;-78
2021/11/02 17:45:54;;;;;;;5.93;4.50;;;;;;;;;;4994688;28;20606;-78
2021/11/02 17:48:21;;;;;;;4.35;3.70;;;;;;;;;;4994850;28;20172;-77
2021/11/02 17:50:47;;;;;;;3.58;2.85;;;;;;;;;;4996699;28;20210;-78
2021/11/02 17:53:14;;;;;;;3.20;2.90;;;;;;;;;;4995053;28;20302;-78
2021/11/02 17:55:40;;;;;;;3.10;2.63;;;;;;;;;;4996375;28;20172;-78
2021/11/02 17:58:06;;;;;;;3.85;3.20;;;;;;;;;;4996678;28;20175;-78
2021/11/02 18:00:33;;;;;;;4.65;3.40;;;;;;;;;;4996253;28;20208;-78
2021/11/02 18:02:59;;;;;;;4.00;3.58;;;;;;;;;;4995321;28;20206;-78
2021/11/02 18:05:26;;;;;;;7.93;4.55;;;;;;;;;;4994133;28;20179;-78
2021/11/02 18:07:53;;;;;;;5.70;3.83;;;;;;;;;;4995591;28;20180;-79
2021/11/02 18:10:19;;;;;;;5.90;4.45;;;;;;;;;;4995643;28;20640;-77
2021/11/02 18:12:46;;;;;;;4.50;3.03;;;;;;;;;;4994203;28;20206;-78
2021/11/02 18:15:12;;;;;;;4.97;4.47;;;;;;;;;;4996996;28;20172;-78
2021/11/02 18:17:43;;;;;;;5.03;3.72;;;;;;;;;;4994520;28;20236;-80
2021/11/02 18:20:10;;;;;;;5.10;4.30;;;;;;;;;;4993507;28;20618;-79
2021/11/02 18:22:36;;;;;;;11.55;7.32;;;;;;;;;;4994496;28;20234;-79
2021/11/02 18:25:03;;;;;;;8.18;5.10;;;;;;;;;;4994203;28;20171;-78
2021/11/02 18:27:30;;;;;;;6.35;5.50;;;;;;;;;;4993457;28;20180;-79
2021/11/02 18:29:56;;;;;;;8.50;4.97;;;;;;;;;;4993364;28;20259;-80
2021/11/02 18:32:23;;;;;;;11.98;6.55;;;;;;;;;;4991688;28;20211;-79
2021/11/02 18:34:49;;;;;;;20.42;11.52;;;;;;;;;;4986357;28;20300;-79
2021/11/02 18:37:16;;;;;;;19.83;12.45;;;;;;;;;;4993211;28;20258;-80
2021/11/02 18:39:42;;;;;;;30.05;15.27;;;;;;;;;;4993231;28;20200;-80
2021/11/02 18:42:08;;;;;;;9.68;6.90;;;;;;;;;;4992886;28;20278;-79
2021/11/02 18:44:35;;;;;;;10.30;6.63;;;;;;;;;;4993356;28;20202;-79
2021/11/02 18:47:02;;;;;;;10.40;8.07;;;;;;;;;;4987189;28;20199;-79
2021/11/02 18:49:28;;;;;;;8.70;6.10;;;;;;;;;;4982401;28;20560;-79
2021/11/02 18:51:54;;;;;;;6.68;5.00;;;;;;;;;;4981988;28;20215;-80
2021/11/02 18:54:20;;;;;;;8.40;4.43;;;;;;;;;;4980931;28;20188;-79
2021/11/02 18:56:46;;;;;;;8.52;5.57;;;;;;;;;;4969364;28;20199;-79
2021/11/02 18:59:13;;;;;;;6.68;5.43;;;;;;;;;;4985798;28;20180;-78
2021/11/02 19:01:42;;;;;;;6.68;5.13;;;;;;;;;;4985101;28;20222;-79
2021/11/02 19:04:08;;;;;;;8.82;6.35;;;;;;;;;;4981928;28;20179;-79
2021/11/02 19:06:35;;;;;;;11.13;8.40;;;;;;;;;;4976965;28;20176;-79
2021/11/02 19:09:01;;;;;;;13.00;8.68;;;;;;;;;;4977077;28;20415;-79
2021/11/02 19:11:27;;;;;;;12.13;9.10;;;;;;;;;;4976653;28;20194;-79
2021/11/02 19:13:53;;;;;;;11.60;7.40;;;;;;;;;;4976719;28;20644;-80
2021/11/02 19:16:19;;;;;;;12.55;7.68;;;;;;;;;;4975760;28;20414;-79
2021/11/02 19:18:47;;;;;;;6.88;5.03;;;;;;;;;;4976725;28;20178;-79
2021/11/02 19:21:13;;;;;;;5.90;5.07;;;;;;;;;;4976481;28;20208;-79
2021/11/02 19:23:39;;;;;;;6.53;5.60;;;;;;;;;;4976694;28;20196;-79
2021/11/02 19:26:08;;;;;;;8.88;6.70;;;;;;;;;;4976603;28;20185;-80
2021/11/02 19:28:34;;;;;;;8.02;6.45;;;;;;;;;;4975346;28;20183;-79
2021/11/02 19:31:00;;;;;;;6.65;5.72;;;;;;;;;;4974958;28;20203;-80
2021/11/02 19:33:26;;;;;;;9.65;5.53;;;;;;;;;;4975350;28;20612;-79
2021/11/02 19:35:52;;;;;;;8.05;6.60;;;;;;;;;;4976524;28;20211;-79
2021/11/02 19:38:19;;;;;;;6.55;5.75;;;;;;;;;;4976420;28;20172;-79
2021/11/02 19:40:45;;;;;;;5.85;5.25;;;;;;;;;;4975398;28;20206;-79
2021/11/02 19:43:12;;;;;;;4.90;4.32;;;;;;;;;;4976052;28;20727;-80
2021/11/02 19:45:40;;;;;;;6.28;5.63;;;;;;;;;;4975036;28;20200;-80
2021/11/02 19:48:06;;;;;;;6.18;5.22;;;;;;;;;;4976501;28;20175;-80
2021/11/02 19:50:32;;;;;;;6.50;5.30;;;;;;;;;;4976420;28;20174;-79